Time;durP1;ratioP1;P1;durP2;ratioP2;P2;SDS_P1;SDS_P2;PMS_P1;PMS_P2;Temp;Humidity;BMP_temperature;BMP_pressure;BME280_temperature;BME280_humidity;BME280_pressure;Samples;Min_cycle;Max_cycle;Signal;HPM_P1;HPM_P2
2022/12/28 00:00:47;;;;;;;2.40;1.37;;;4.70;97.30;;;;;;4977949;28;20457;-86
2022/12/28 00:03:12;;;;;;;5.17;3.07;;;4.70;97.30;;;;;;4976768;28;20189;-89
2022/12/28 00:05:38;;;;;;;1.50;1.40;;;4.70;97.30;;;;;;4982475;28;20684;-90
2022/12/28 00:08:04;;;;;;;1.70;1.60;;;4.70;97.30;;;;;;4977766;28;20672;-87
2022/12/28 00:10:29;;;;;;;1.67;1.57;;;4.70;97.30;;;;;;4979641;28;20186;-83
2022/12/28 00:12:55;;;;;;;1.77;1.67;;;4.70;97.30;;;;;;4976492;28;20194;-87
2022/12/28 00:15:20;;;;;;;5.47;2.33;;;4.70;97.30;;;;;;4973042;28;20300;-87
2022/12/28 00:17:46;;;;;;;1.17;1.10;;;4.70;97.30;;;;;;4975761;28;20187;-84
2022/12/28 00:20:12;;;;;;;1.20;1.10;;;4.70;97.30;;;;;;4977883;28;20198;-86
2022/12/28 00:22:37;;;;;;;1.73;1.60;;;4.70;97.30;;;;;;4974393;28;20234;-86
2022/12/28 00:25:03;;;;;;;1.33;1.23;;;4.70;97.30;;;;;;4976747;28;20240;-86
2022/12/28 00:27:28;;;;;;;3.53;3.07;;;4.70;97.30;;;;;;4976540;28;20186;-85
2022/12/28 00:29:54;;;;;;;2.07;1.93;;;4.70;97.30;;;;;;4977131;28;20193;-85
2022/12/28 00:32:20;;;;;;;1.10;1.00;;;4.70;97.30;;;;;;4976114;28;20274;-87
2022/12/28 00:34:46;;;;;;;1.10;1.00;;;4.70;97.30;;;;;;4976218;28;20222;-87
2022/12/28 00:37:11;;;;;;;1.00;0.90;;;4.70;97.30;;;;;;4974402;28;20855;-88
2022/12/28 00:39:37;;;;;;;1.00;0.90;;;4.60;97.30;;;;;;4973907;28;20183;-87
2022/12/28 00:42:02;;;;;;;1.30;1.20;;;4.60;97.30;;;;;;4975720;28;20178;-85
2022/12/28 00:44:28;;;;;;;1.73;1.57;;;4.60;97.30;;;;;;4977147;28;20209;-89
2022/12/28 00:46:54;;;;;;;2.90;1.83;;;4.60;97.30;;;;;;4976023;28;20209;-88
2022/12/28 00:49:20;;;;;;;1.30;1.20;;;4.60;97.30;;;;;;4974802;28;20418;-87
2022/12/28 00:51:45;;;;;;;2.80;2.60;;;4.50;97.30;;;;;;4975984;28;20187;-88
2022/12/28 00:54:11;;;;;;;1.73;1.20;;;4.50;97.30;;;;;;4977151;28;20208;-88
2022/12/28 00:56:40;;;;;;;1.30;1.20;;;4.50;97.30;;;;;;4975803;28;20218;-84
2022/12/28 00:59:05;;;;;;;1.30;1.20;;;4.50;97.30;;;;;;4978012;28;20179;-85
2022/12/28 01:01:31;;;;;;;2.07;1.93;;;4.50;97.30;;;;;;4976289;28;20449;-84
2022/12/28 01:03:57;;;;;;;1.37;1.27;;;4.50;97.30;;;;;;4976296;28;20323;-87
2022/12/28 01:06:22;;;;;;;1.17;1.07;;;4.50;97.30;;;;;;4977111;28;20178;-87
2022/12/28 01:08:48;;;;;;;1.20;1.10;;;4.50;97.30;;;;;;4976705;28;20485;-86
2022/12/28 01:11:19;;;;;;;1.30;1.20;;;4.50;97.30;;;;;;4975943;28;20183;-88
2022/12/28 01:13:47;;;;;;;1.10;1.00;;;4.50;97.30;;;;;;4975673;28;20193;-88
2022/12/28 01:16:18;;;;;;;1.10;1.00;;;4.60;97.30;;;;;;4976955;28;21129;-86
2022/12/28 01:18:45;;;;;;;1.10;1.00;;;4.60;97.30;;;;;;4975235;28;20437;-87
2022/12/28 01:21:14;;;;;;;1.50;1.40;;;4.60;97.30;;;;;;4977414;28;20524;-87
2022/12/28 01:23:39;;;;;;;1.30;1.20;;;4.50;97.30;;;;;;4977846;28;20418;-88
2022/12/28 01:26:05;;;;;;;1.10;1.00;;;4.50;97.30;;;;;;4986884;28;20454;-89
2022/12/28 01:28:31;;;;;;;1.20;1.10;;;4.50;97.30;;;;;;4996273;28;20174;-93
2022/12/28 01:31:05;;;;;;;1.17;1.17;;;4.50;97.30;;;;;;4995779;28;20453;-89
2022/12/28 01:33:31;;;;;;;2.20;1.40;;;4.40;97.30;;;;;;4995728;28;20159;-90
2022/12/28 01:35:56;;;;;;;12.13;1.43;;;4.40;97.30;;;;;;4992552;28;20462;-91
2022/12/28 01:38:22;;;;;;;1.10;1.00;;;4.40;97.30;;;;;;4994890;28;20194;-92
2022/12/28 01:40:47;;;;;;;1.10;1.00;;;4.30;97.30;;;;;;4995210;28;20188;-92
2022/12/28 01:43:13;;;;;;;1.20;1.10;;;4.20;97.30;;;;;;4995898;28;20179;-91
2022/12/28 01:45:40;;;;;;;1.00;0.90;;;4.20;97.30;;;;;;4995963;28;20205;-92
2022/12/28 01:48:17;;;;;;;2.87;2.10;;;4.10;97.30;;;;;;4995716;28;20441;-90
2022/12/28 01:50:43;;;;;;;1.13;1.03;;;4.10;97.30;;;;;;4995798;28;20436;-90
2022/12/28 01:53:09;;;;;;;1.33;1.20;;;4.00;97.30;;;;;;4996247;28;20437;-90
2022/12/28 01:55:38;;;;;;;1.50;1.43;;;4.00;97.30;;;;;;4995441;28;20477;-91
2022/12/28 01:58:10;;;;;;;1.30;1.20;;;4.00;97.30;;;;;;4986309;28;20445;-88
2022/12/28 02:00:36;;;;;;;1.30;1.20;;;4.00;97.30;;;;;;4971570;28;20441;-88
2022/12/28 02:03:12;;;;;;;1.20;1.10;;;4.00;97.30;;;;;;4970993;28;20894;-88
2022/12/28 02:05:42;;;;;;;1.30;1.20;;;4.00;97.30;;;;;;4970800;28;20449;-88
2022/12/28 02:08:15;;;;;;;1.27;1.17;;;4.00;97.30;;;;;;4970336;28;20429;-89
2022/12/28 02:10:42;;;;;;;1.20;1.10;;;3.90;97.30;;;;;;4964497;28;20441;-88
2022/12/28 02:13:08;;;;;;;1.40;1.30;;;3.90;97.30;;;;;;4974512;28;20577;-88
2022/12/28 02:15:34;;;;;;;0.97;0.90;;;3.90;97.30;;;;;;4962085;28;20501;-87
2022/12/28 02:18:00;;;;;;;1.20;1.10;;;3.90;97.30;;;;;;4975891;28;20512;-87
2022/12/28 02:20:37;;;;;;;1.67;1.63;;;3.90;97.30;;;;;;4974457;28;20425;-87
2022/12/28 02:23:33;;;;;;;2.50;2.13;;;3.90;97.30;;;;;;4974223;28;20425;-88
2022/12/28 02:26:28;;;;;;;5.00;2.23;;;3.90;97.30;;;;;;4974036;28;21002;-91
2022/12/28 02:29:32;;;;;;;1.10;1.00;;;3.90;97.30;;;;;;4965780;28;20429;-87
2022/12/28 02:32:16;;;;;;;6.20;3.27;;;3.90;97.30;;;;;;4963048;28;20499;-88
2022/12/28 02:34:58;;;;;;;1.77;1.73;;;4.00;97.30;;;;;;4975020;28;20442;-88
2022/12/28 02:37:39;;;;;;;1.23;1.13;;;3.90;97.30;;;;;;4974037;28;20584;-87
2022/12/28 02:40:10;;;;;;;1.27;1.17;;;3.90;97.30;;;;;;4962914;28;20424;-89
2022/12/28 02:42:37;;;;;;;1.63;1.53;;;3.90;97.30;;;;;;4973159;28;20439;-88
2022/12/28 02:51:11;;;;;;;1.20;1.10;;;3.90;97.30;;;;;;4975153;28;20460;-88
2022/12/28 02:54:06;;;;;;;1.00;0.90;;;3.80;97.30;;;;;;4954192;28;20532;-88
2022/12/28 02:56:48;;;;;;;1.17;1.07;;;3.80;97.30;;;;;;4963652;28;20471;-88
2022/12/28 02:59:38;;;;;;;7.60;2.00;;;3.80;97.30;;;;;;4972934;28;20980;-88
2022/12/28 03:02:19;;;;;;;1.53;1.43;;;3.70;97.30;;;;;;4972928;28;20473;-88
2022/12/28 03:05:10;;;;;;;1.10;1.00;;;3.70;97.30;;;;;;4973498;28;20434;-88
2022/12/28 03:11:00;;;;;;;1.20;1.03;;;3.70;97.30;;;;;;4974861;28;20816;-88
2022/12/28 03:13:42;;;;;;;1.07;0.97;;;3.70;97.30;;;;;;4973442;28;20849;-88
2022/12/28 03:16:13;;;;;;;1.00;0.90;;;3.80;97.30;;;;;;4974592;28;20504;-88
2022/12/28 03:32:44;;;;;;;1.10;1.00;;;4.00;97.30;;;;;;4975218;28;20441;-87
2022/12/28 03:35:10;;;;;;;5.60;1.30;;;4.00;97.30;;;;;;4973591;28;20597;-89
2022/12/28 03:37:43;;;;;;;1.83;1.73;;;4.10;97.30;;;;;;4974170;28;20505;-87
2022/12/28 03:40:22;;;;;;;1.10;1.00;;;4.10;97.30;;;;;;4973472;28;20421;-88
2022/12/28 03:45:56;;;;;;;1.40;1.30;;;4.30;97.30;;;;;;4974182;28;21165;-88
2022/12/28 03:48:23;;;;;;;1.10;1.00;;;4.30;97.30;;;;;;4962536;28;20832;-88
2022/12/28 03:50:52;;;;;;;1.23;1.13;;;4.40;97.30;;;;;;4972409;28;21055;-87
2022/12/28 03:53:28;;;;;;;1.27;1.17;;;4.40;97.30;;;;;;4972784;28;20465;-87
2022/12/28 03:56:23;;;;;;;1.43;1.33;;;4.50;97.30;;;;;;4972417;28;20876;-89
2022/12/28 03:58:49;;;;;;;2.93;2.60;;;4.50;97.30;;;;;;4959735;28;20427;-87
2022/12/28 04:01:15;;;;;;;2.27;2.07;;;4.50;97.30;;;;;;4971890;28;20811;-88
2022/12/28 04:03:42;;;;;;;1.53;1.43;;;4.50;97.30;;;;;;4971645;28;20194;-87
2022/12/28 04:06:14;;;;;;;1.07;0.97;;;4.50;97.30;;;;;;4970802;28;20189;-87
2022/12/28 04:08:40;;;;;;;1.13;1.03;;;4.50;97.30;;;;;;4973260;28;20446;-88
2022/12/28 04:11:05;;;;;;;1.20;1.10;;;4.50;97.30;;;;;;4972370;28;20430;-88
2022/12/28 04:13:31;;;;;;;3.60;1.20;;;4.50;97.30;;;;;;4971608;28;20672;-89
2022/12/28 04:16:02;;;;;;;2.70;1.43;;;4.50;97.30;;;;;;4980936;28;20208;-88
2022/12/28 04:18:30;;;;;;;2.00;1.00;;;4.50;97.30;;;;;;4971353;28;20202;-88
2022/12/28 04:20:55;;;;;;;1.40;1.30;;;4.60;97.30;;;;;;4971033;28;20864;-88
2022/12/28 04:23:21;;;;;;;1.13;1.03;;;4.60;97.30;;;;;;4971807;28;20500;-87
2022/12/28 04:26:01;;;;;;;1.17;1.07;;;4.60;97.30;;;;;;4992167;22;20246;-86
2022/12/28 04:28:27;;;;;;;1.67;1.57;;;4.60;97.30;;;;;;4985672;28;20275;-83
2022/12/28 04:30:53;;;;;;;1.97;1.87;;;4.60;97.30;;;;;;4987221;28;21119;-86
2022/12/28 04:33:18;;;;;;;1.33;1.23;;;4.60;97.30;;;;;;4971159;28;20414;-86
2022/12/28 04:35:44;;;;;;;1.27;1.17;;;4.60;97.30;;;;;;4970983;28;20508;-86
2022/12/28 04:38:09;;;;;;;2.00;1.60;;;4.60;97.30;;;;;;4981832;28;20175;-87
2022/12/28 04:40:35;;;;;;;1.43;1.33;;;4.60;97.30;;;;;;4981952;28;20261;-85
2022/12/28 04:43:00;;;;;;;1.40;1.30;;;4.60;97.30;;;;;;4971223;28;20214;-85
2022/12/28 04:45:26;;;;;;;1.50;1.40;;;4.60;97.30;;;;;;4981564;28;20218;-86
2022/12/28 04:47:55;;;;;;;1.13;1.03;;;4.60;97.30;;;;;;4987665;28;20761;-86
2022/12/28 04:50:21;;;;;;;1.67;1.57;;;4.60;97.30;;;;;;4970951;28;20212;-86
2022/12/28 04:52:46;;;;;;;1.90;1.80;;;4.60;97.30;;;;;;4975909;28;20426;-86
2022/12/28 04:55:12;;;;;;;1.10;1.10;;;4.60;97.30;;;;;;4970750;28;20677;-86
2022/12/28 04:57:37;;;;;;;1.50;1.40;;;4.60;97.30;;;;;;4965075;28;20175;-86
2022/12/28 05:00:03;;;;;;;0.90;0.80;;;4.70;97.30;;;;;;4965990;28;20587;-86
2022/12/28 05:02:30;;;;;;;1.13;1.10;;;4.70;97.30;;;;;;4971074;28;20183;-86
2022/12/28 05:04:55;;;;;;;1.20;1.10;;;4.70;97.30;;;;;;4971733;28;20477;-87
2022/12/28 05:07:21;;;;;;;1.30;1.20;;;4.70;97.30;;;;;;4970935;28;20441;-85
2022/12/28 05:09:46;;;;;;;1.27;0.90;;;4.70;97.30;;;;;;4970426;28;20202;-85
2022/12/28 05:12:11;;;;;;;1.37;1.27;;;4.80;97.30;;;;;;4970706;28;20187;-86
2022/12/28 05:14:37;;;;;;;1.10;1.00;;;4.80;97.30;;;;;;4970662;28;20200;-85
2022/12/28 05:17:03;;;;;;;1.10;1.00;;;4.80;97.30;;;;;;4971695;28;20214;-87
2022/12/28 05:19:28;;;;;;;2.70;2.50;;;4.90;97.30;;;;;;4957729;28;20197;-86
2022/12/28 05:21:54;;;;;;;1.20;1.10;;;4.90;97.30;;;;;;4979237;28;20194;-86
2022/12/28 05:24:19;;;;;;;1.70;1.60;;;4.90;97.30;;;;;;4965661;28;20181;-86
2022/12/28 05:26:44;;;;;;;1.40;1.30;;;4.90;97.30;;;;;;4970615;28;20729;-87
2022/12/28 05:29:10;;;;;;;1.10;1.00;;;4.90;97.30;;;;;;4970168;28;20182;-86
2022/12/28 05:31:35;;;;;;;1.10;1.00;;;5.00;97.30;;;;;;4986060;28;20180;-87
2022/12/28 05:34:01;;;;;;;1.20;1.10;;;5.00;97.30;;;;;;4970554;28;20217;-86
2022/12/28 05:36:27;;;;;;;1.23;1.13;;;5.00;97.30;;;;;;4991298;28;20218;-87
2022/12/28 05:38:53;;;;;;;0.90;0.80;;;5.00;97.30;;;;;;4985447;28;20550;-88
2022/12/28 05:41:27;;;;;;;3.27;2.00;;;5.00;97.30;;;;;;4991945;28;20190;-88
2022/12/28 05:43:53;;;;;;;1.80;1.23;;;5.10;97.30;;;;;;4991674;28;20461;-87
2022/12/28 05:46:23;;;;;;;1.87;1.10;;;5.10;97.30;;;;;;4991481;28;20481;-88
2022/12/28 05:48:49;;;;;;;1.00;0.90;;;5.10;97.30;;;;;;4991106;28;20414;-88
2022/12/28 05:51:17;;;;;;;1.37;1.17;;;5.10;97.30;;;;;;4978612;28;20419;-89
2022/12/28 05:53:43;;;;;;;0.93;0.83;;;5.10;97.30;;;;;;4980953;28;20531;-86
2022/12/28 05:56:31;;;;;;;2.30;1.00;;;5.10;97.30;;;;;;4970605;28;20488;-86
2022/12/28 05:58:59;;;;;;;1.37;1.27;;;5.10;97.30;;;;;;4960455;28;20418;-86
2022/12/28 06:01:27;;;;;;;1.10;1.00;;;5.10;97.30;;;;;;4969882;28;20588;-85
2022/12/28 06:04:02;;;;;;;1.23;1.13;;;5.10;97.30;;;;;;4983983;28;20414;-88
2022/12/28 06:06:29;;;;;;;1.30;1.20;;;5.10;97.30;;;;;;4989297;28;20488;-87
2022/12/28 06:08:55;;;;;;;1.13;1.03;;;5.00;97.30;;;;;;5002101;28;20439;-87
2022/12/28 06:11:23;;;;;;;1.73;1.17;;;5.10;97.30;;;;;;4962781;28;20422;-87
2022/12/28 06:13:49;;;;;;;1.20;1.10;;;5.10;97.30;;;;;;4969780;28;20189;-86
2022/12/28 06:16:19;;;;;;;1.00;0.93;;;5.10;97.30;;;;;;4970769;28;20476;-87
2022/12/28 06:18:44;;;;;;;1.30;1.20;;;5.10;97.30;;;;;;4962489;28;20786;-87
2022/12/28 06:21:21;;;;;;;1.37;1.07;;;5.10;97.30;;;;;;4966266;28;20422;-86
2022/12/28 06:23:47;;;;;;;0.93;0.83;;;5.10;97.30;;;;;;4954288;28;20183;-86
2022/12/28 06:26:15;;;;;;;1.40;1.30;;;5.10;97.30;;;;;;4959990;28;21001;-86
2022/12/28 06:28:41;;;;;;;2.87;1.70;;;5.10;97.30;;;;;;4979377;28;20422;-86
2022/12/28 06:31:09;;;;;;;1.30;1.20;;;5.20;97.30;;;;;;4963748;28;20476;-86
2022/12/28 06:33:35;;;;;;;1.10;1.00;;;5.20;97.30;;;;;;4969769;28;20429;-87
2022/12/28 06:36:01;;;;;;;1.10;1.00;;;5.20;97.30;;;;;;4979639;28;20462;-86
2022/12/28 06:38:29;;;;;;;0.97;0.87;;;5.20;97.30;;;;;;4970657;28;20552;-86
2022/12/28 06:41:07;;;;;;;1.10;1.00;;;5.30;97.30;;;;;;4970603;28;20418;-86
2022/12/28 06:43:34;;;;;;;0.90;0.80;;;5.30;97.30;;;;;;4968131;28;20526;-86
2022/12/28 06:46:00;;;;;;;4.50;1.33;;;5.30;97.30;;;;;;4967183;28;20535;-86
2022/12/28 06:48:26;;;;;;;1.00;0.90;;;5.40;97.30;;;;;;4964918;28;20414;-86
2022/12/28 06:50:59;;;;;;;1.00;0.90;;;5.40;97.30;;;;;;4953689;28;20509;-86
2022/12/28 06:53:27;;;;;;;1.10;1.10;;;5.40;97.30;;;;;;4964418;28;20422;-85
2022/12/28 06:56:00;;;;;;;1.37;1.27;;;5.40;97.30;;;;;;4960403;28;20470;-86
2022/12/28 06:58:28;;;;;;;1.33;1.23;;;5.40;97.30;;;;;;4961540;28;20510;-87
2022/12/28 07:00:54;;;;;;;1.00;0.90;;;5.40;97.30;;;;;;4966334;28;20428;-87
2022/12/28 07:03:21;;;;;;;1.10;1.00;;;5.40;97.30;;;;;;4980367;28;20426;-86
2022/12/28 07:05:46;;;;;;;1.37;0.97;;;5.40;97.30;;;;;;4967033;28;20488;-85
2022/12/28 07:08:12;;;;;;;1.60;1.50;;;5.40;97.30;;;;;;4980847;28;20419;-86
2022/12/28 07:10:38;;;;;;;1.90;1.57;;;5.40;97.30;;;;;;4968433;28;20190;-87
2022/12/28 07:13:04;;;;;;;1.90;1.30;;;5.40;97.30;;;;;;4964481;28;20198;-87
2022/12/28 07:15:29;;;;;;;1.47;0.93;;;5.50;97.30;;;;;;4976165;28;20207;-86
2022/12/28 07:17:56;;;;;;;2.60;2.40;;;5.50;97.30;;;;;;4964749;28;20187;-87
2022/12/28 07:20:22;;;;;;;1.07;0.97;;;5.50;97.30;;;;;;4967015;28;20229;-86
2022/12/28 07:22:47;;;;;;;1.17;1.07;;;5.60;97.30;;;;;;4963939;28;20425;-86
2022/12/28 07:25:13;;;;;;;1.40;0.97;;;5.60;97.30;;;;;;4964478;28;20223;-87
2022/12/28 07:27:38;;;;;;;1.40;1.00;;;5.60;97.30;;;;;;4970711;28;20203;-87
2022/12/28 07:30:04;;;;;;;1.30;1.20;;;5.60;97.30;;;;;;4965711;28;20242;-86
2022/12/28 07:32:29;;;;;;;2.27;2.07;;;5.60;97.30;;;;;;4970711;28;20193;-86
2022/12/28 07:34:55;;;;;;;1.40;1.30;;;5.70;97.30;;;;;;4977167;28;20419;-85
2022/12/28 07:37:20;;;;;;;1.10;1.00;;;5.70;97.30;;;;;;4970464;28;20806;-86
2022/12/28 07:39:46;;;;;;;1.00;0.90;;;5.70;97.30;;;;;;4959155;28;20274;-86
2022/12/28 07:42:11;;;;;;;1.47;1.37;;;5.70;97.30;;;;;;4964080;28;20218;-86
2022/12/28 07:44:40;;;;;;;1.20;1.10;;;5.70;97.30;;;;;;4972829;28;20190;-87
2022/12/28 07:47:06;;;;;;;1.00;0.90;;;5.70;97.30;;;;;;4970337;28;20182;-87
2022/12/28 07:49:32;;;;;;;1.20;1.10;;;5.80;97.30;;;;;;4975607;28;20466;-86
2022/12/28 07:51:57;;;;;;;1.13;1.03;;;5.80;97.30;;;;;;4966000;28;20884;-84
2022/12/28 07:54:23;;;;;;;1.37;1.27;;;5.80;97.30;;;;;;4964952;28;21369;-85
2022/12/28 07:56:48;;;;;;;1.13;1.03;;;5.90;97.30;;;;;;4963210;28;20268;-85
2022/12/28 07:59:14;;;;;;;1.10;1.00;;;5.90;97.30;;;;;;4971571;28;20183;-87
2022/12/28 08:01:39;;;;;;;1.03;0.93;;;5.90;97.30;;;;;;4970701;28;20219;-85
2022/12/28 08:04:08;;;;;;;1.30;1.20;;;6.00;97.30;;;;;;4985330;28;20195;-86
2022/12/28 08:06:36;;;;;;;1.10;1.00;;;6.00;97.30;;;;;;4963197;28;20241;-87
2022/12/28 08:09:03;;;;;;;2.90;1.40;;;6.00;97.30;;;;;;4965080;28;20488;-89
2022/12/28 08:11:32;;;;;;;1.20;1.10;;;6.10;97.30;;;;;;4986711;28;20460;-86
2022/12/28 08:13:58;;;;;;;1.20;1.10;;;6.10;97.30;;;;;;4979043;28;20427;-86
2022/12/28 08:16:26;;;;;;;1.57;1.20;;;6.10;97.30;;;;;;4966972;28;20478;-88
2022/12/28 08:18:53;;;;;;;1.10;1.00;;;6.20;97.30;;;;;;4979202;28;20987;-86
2022/12/28 08:21:22;;;;;;;1.37;1.27;;;6.20;97.30;;;;;;4968903;28;21139;-87
2022/12/28 08:23:48;;;;;;;1.43;1.00;;;6.30;97.30;;;;;;4962724;28;20421;-87
2022/12/28 08:26:32;;;;;;;1.70;1.60;;;6.40;97.30;;;;;;4970992;28;20528;-87
2022/12/28 08:29:01;;;;;;;2.10;1.20;;;6.40;97.30;;;;;;4970221;28;20434;-86
2022/12/28 08:31:29;;;;;;;1.00;0.90;;;6.40;97.30;;;;;;4974930;28;20434;-87
2022/12/28 08:33:56;;;;;;;1.30;1.20;;;6.40;97.30;;;;;;4983979;28;20512;-86
2022/12/28 08:36:22;;;;;;;2.30;1.80;;;6.40;97.30;;;;;;4965695;28;20469;-85
2022/12/28 08:38:49;;;;;;;1.23;1.13;;;6.50;97.30;;;;;;4964765;28;21390;-85
2022/12/28 08:41:17;;;;;;;1.27;1.17;;;6.50;97.30;;;;;;4966703;28;20261;-87
2022/12/28 08:43:43;;;;;;;1.33;1.23;;;6.50;97.30;;;;;;4959688;28;21000;-89
2022/12/28 08:46:15;;;;;;;1.13;1.03;;;6.60;97.30;;;;;;4973679;28;20930;-88
2022/12/28 08:48:41;;;;;;;2.23;2.03;;;6.60;97.30;;;;;;4956303;28;20430;-88
2022/12/28 08:51:27;;;;;;;1.10;1.00;;;6.60;97.30;;;;;;4967966;28;20469;-87
2022/12/28 08:53:53;;;;;;;1.20;1.10;;;6.70;97.30;;;;;;4964687;28;20510;-87
2022/12/28 08:56:22;;;;;;;1.07;0.97;;;6.70;97.30;;;;;;4970061;28;20567;-88
2022/12/28 08:58:49;;;;;;;2.30;2.10;;;6.80;97.30;;;;;;4964219;28;20191;-86
2022/12/28 09:01:18;;;;;;;1.10;1.00;;;6.80;97.30;;;;;;4960159;28;20422;-87
2022/12/28 09:03:45;;;;;;;1.27;1.23;;;6.80;97.30;;;;;;4958936;28;20422;-87
2022/12/28 09:06:17;;;;;;;1.27;1.17;;;6.80;97.30;;;;;;4982785;28;20445;-88
2022/12/28 09:08:43;;;;;;;1.57;1.40;;;6.80;97.30;;;;;;4960430;28;20431;-88
2022/12/28 09:11:10;;;;;;;1.10;1.00;;;6.80;97.30;;;;;;4984765;28;20481;-87
2022/12/28 09:13:37;;;;;;;1.10;1.00;;;6.70;97.30;;;;;;4968330;28;20193;-88
2022/12/28 09:16:09;;;;;;;2.00;1.53;;;6.70;97.30;;;;;;4968569;28;20528;-88
2022/12/28 09:18:35;;;;;;;1.40;1.20;;;6.60;97.30;;;;;;4966841;28;20429;-87
2022/12/28 09:21:10;;;;;;;1.40;1.30;;;6.60;97.30;;;;;;4984213;28;20532;-88
2022/12/28 09:23:36;;;;;;;1.73;1.37;;;6.60;97.30;;;;;;4968672;28;20427;-88
2022/12/28 09:26:07;;;;;;;1.33;1.23;;;6.50;97.30;;;;;;4981442;28;20482;-88
2022/12/28 09:28:32;;;;;;;1.67;1.57;;;6.50;97.30;;;;;;4983267;28;20220;-88
2022/12/28 09:31:01;;;;;;;1.00;0.90;;;6.50;97.30;;;;;;4984210;28;20948;-86
2022/12/28 09:36:11;;;;;;;1.20;1.10;;;6.60;97.30;;;;;;4958952;28;20485;-88
2022/12/28 09:38:36;;;;;;;1.27;1.17;;;6.70;97.30;;;;;;4963596;28;20937;-93
2022/12/28 09:41:10;;;;;;;1.87;1.73;;;6.80;97.30;;;;;;4959432;28;20241;-91
2022/12/28 09:43:40;;;;;;;1.73;1.63;;;6.80;97.30;;;;;;4984740;28;20653;-89
2022/12/28 09:46:05;;;;;;;1.30;1.23;;;6.90;97.30;;;;;;4960494;28;20964;-89
2022/12/28 09:48:32;;;;;;;1.27;1.10;;;6.90;97.30;;;;;;4965041;28;20467;-89
2022/12/28 09:50:57;;;;;;;1.43;1.33;;;7.00;97.30;;;;;;4974865;28;20186;-87
2022/12/28 09:53:32;;;;;;;5.80;2.37;;;7.10;97.30;;;;;;4966671;28;20445;-89
2022/12/28 09:56:37;;;;;;;1.60;1.50;;;7.10;97.30;;;;;;4979038;28;20224;-87
2022/12/28 09:59:05;;;;;;;1.67;1.57;;;7.20;97.30;;;;;;4974630;28;20434;-89
2022/12/28 10:01:34;;;;;;;1.53;1.43;;;7.30;97.30;;;;;;4952713;28;20445;-88
2022/12/28 10:04:01;;;;;;;1.43;1.33;;;7.30;97.30;;;;;;4958212;28;20427;-88
2022/12/28 10:06:31;;;;;;;1.30;1.20;;;7.30;97.30;;;;;;4967790;28;20861;-88
2022/12/28 10:08:58;;;;;;;2.60;1.60;;;7.40;97.30;;;;;;4966327;28;20426;-90
2022/12/28 10:11:30;;;;;;;1.43;1.33;;;7.40;97.30;;;;;;4966162;28;20429;-89
2022/12/28 10:13:58;;;;;;;16.30;2.53;;;7.40;97.30;;;;;;4961587;28;20417;-88
2022/12/28 10:16:28;;;;;;;1.10;1.00;;;7.50;97.30;;;;;;4963225;28;20470;-88
2022/12/28 10:18:54;;;;;;;2.23;2.03;;;7.50;97.30;;;;;;4966124;28;20426;-90
2022/12/28 10:21:22;;;;;;;1.00;0.90;;;7.50;97.30;;;;;;4984050;28;20422;-88
2022/12/28 10:23:51;;;;;;;1.10;1.00;;;7.60;97.30;;;;;;4963123;28;20186;-89
2022/12/28 10:26:19;;;;;;;0.93;0.83;;;7.60;97.30;;;;;;4964617;28;20466;-88
2022/12/28 10:28:51;;;;;;;1.23;1.00;;;7.70;97.30;;;;;;4958748;28;20437;-88
2022/12/28 10:31:31;;;;;;;1.07;0.97;;;7.70;97.30;;;;;;4977933;28;20479;-90
2022/12/28 10:33:56;;;;;;;1.23;1.13;;;7.70;97.30;;;;;;4963713;28;20453;-89
2022/12/28 10:36:23;;;;;;;1.50;1.40;;;7.80;97.30;;;;;;4968363;28;20508;-88
2022/12/28 10:38:52;;;;;;;1.07;0.97;;;7.80;97.30;;;;;;4963213;28;20654;-89
2022/12/28 10:41:19;;;;;;;1.77;1.33;;;7.80;97.30;;;;;;4967058;28;20413;-90
2022/12/28 10:43:49;;;;;;;2.20;2.07;;;7.90;97.30;;;;;;4967102;28;20411;-88
2022/12/28 10:46:20;;;;;;;2.00;1.23;;;7.90;97.30;;;;;;4966718;28;20540;-88
2022/12/28 10:48:57;;;;;;;1.87;1.33;;;7.90;97.30;;;;;;4961141;28;20527;-87
2022/12/28 10:51:25;;;;;;;0.97;0.87;;;7.90;97.30;;;;;;4966683;28;20430;-89
2022/12/28 10:53:56;;;;;;;1.20;1.10;;;8.00;97.30;;;;;;5007114;22;20567;-87
2022/12/28 10:56:28;;;;;;;1.10;1.00;;;8.00;97.30;;;;;;4997766;28;20469;-86
2022/12/28 10:59:18;;;;;;;1.00;0.90;;;8.00;97.30;;;;;;4996926;28;20424;-87
2022/12/28 11:01:43;;;;;;;2.20;1.37;;;8.00;97.30;;;;;;5011946;28;20457;-85
2022/12/28 11:04:21;;;;;;;1.67;1.50;;;8.00;97.30;;;;;;4988955;28;20522;-85
2022/12/28 11:07:00;;;;;;;1.20;1.10;;;8.00;97.30;;;;;;4978440;28;20269;-87
2022/12/28 11:09:28;;;;;;;2.50;2.10;;;8.00;97.30;;;;;;4974970;28;20421;-87
2022/12/28 11:12:13;;;;;;;1.30;1.20;;;8.00;97.30;;;;;;4979753;28;20421;-88
2022/12/28 11:14:39;;;;;;;1.50;1.40;;;8.10;97.30;;;;;;4992799;28;20433;-87
2022/12/28 11:17:13;;;;;;;1.13;1.03;;;8.10;97.30;;;;;;4983453;28;20471;-87
2022/12/28 11:19:39;;;;;;;1.20;1.10;;;8.10;97.30;;;;;;4987746;28;20188;-86
2022/12/28 11:22:09;;;;;;;0.90;0.80;;;8.20;97.30;;;;;;4993143;28;20433;-87
2022/12/28 11:24:38;;;;;;;0.90;0.80;;;8.20;97.30;;;;;;4991242;28;20197;-90
2022/12/28 11:27:03;;;;;;;1.17;1.07;;;8.20;97.30;;;;;;5009881;28;20433;-87
2022/12/28 11:29:29;;;;;;;0.77;0.73;;;8.20;97.30;;;;;;4989394;28;20523;-86
2022/12/28 11:32:02;;;;;;;0.90;0.80;;;8.30;97.30;;;;;;4986151;28;20250;-88
2022/12/28 11:34:29;;;;;;;2.20;1.20;;;8.20;97.30;;;;;;4992360;28;20202;-87
2022/12/28 11:36:55;;;;;;;1.00;0.90;;;8.30;97.30;;;;;;4993083;28;20464;-87
2022/12/28 11:39:24;;;;;;;4.17;1.30;;;8.30;97.30;;;;;;4986240;28;20901;-90
2022/12/28 11:41:51;;;;;;;1.40;1.30;;;8.30;97.30;;;;;;5001686;28;20426;-87
2022/12/28 11:44:23;;;;;;;2.50;2.30;;;8.30;97.30;;;;;;4984930;28;20520;-88
2022/12/28 11:46:59;;;;;;;1.10;1.00;;;8.40;97.30;;;;;;4989756;28;20436;-86
2022/12/28 11:49:30;;;;;;;24.83;1.73;;;8.40;97.30;;;;;;4978746;28;20563;-86
2022/12/28 11:52:26;;;;;;;1.50;1.40;;;8.30;97.30;;;;;;4987551;28;20464;-87
2022/12/28 11:54:59;;;;;;;1.83;1.77;;;8.30;97.30;;;;;;4985680;28;20481;-85
2022/12/28 11:57:43;;;;;;;1.17;1.07;;;8.30;97.30;;;;;;5000326;28;20497;-87
2022/12/28 12:00:18;;;;;;;1.20;1.10;;;8.30;97.30;;;;;;4979477;28;20624;-86
2022/12/28 12:03:01;;;;;;;1.00;0.90;;;8.40;97.30;;;;;;4995163;28;20456;-86
2022/12/28 12:05:38;;;;;;;1.23;1.13;;;8.40;97.30;;;;;;4986135;28;20524;-86
2022/12/28 12:08:16;;;;;;;1.60;1.53;;;8.40;97.30;;;;;;4986761;28;20425;-87
2022/12/28 12:10:43;;;;;;;3.70;1.90;;;8.50;97.30;;;;;;4984214;28;20519;-87
2022/12/28 12:13:23;;;;;;;1.10;1.00;;;8.50;97.30;;;;;;4986232;28;20449;-88
2022/12/28 12:15:52;;;;;;;3.63;2.37;;;8.60;97.30;;;;;;4988376;28;20918;-90
2022/12/28 12:18:20;;;;;;;1.17;1.07;;;8.60;97.30;;;;;;4988829;28;20817;-87
2022/12/28 12:21:03;;;;;;;2.80;1.30;;;8.60;97.30;;;;;;4988352;28;20825;-88
2022/12/28 12:23:41;;;;;;;1.47;1.30;;;8.60;97.30;;;;;;4990449;28;20460;-87
2022/12/28 12:26:51;;;;;;;1.20;1.10;;;8.70;97.30;;;;;;5000749;28;20440;-90
2022/12/28 12:29:16;;;;;;;2.03;1.53;;;8.70;97.30;;;;;;4983860;28;20992;-86
2022/12/28 12:31:46;;;;;;;1.40;1.30;;;8.70;97.30;;;;;;4988415;28;20448;-87
2022/12/28 12:34:25;;;;;;;1.50;1.40;;;8.70;97.30;;;;;;4992560;28;20695;-87
2022/12/28 12:37:01;;;;;;;1.77;1.20;;;8.70;97.30;;;;;;4982848;28;20480;-87
2022/12/28 12:40:08;;;;;;;1.40;1.37;;;8.70;97.30;;;;;;4986167;28;20773;-89
2022/12/28 12:42:45;;;;;;;1.27;1.17;;;8.70;97.30;;;;;;4983736;28;20524;-88
2022/12/28 12:45:38;;;;;;;1.57;1.17;;;8.70;97.30;;;;;;4980131;28;20452;-87
2022/12/28 12:48:38;;;;;;;1.43;1.33;;;8.70;97.30;;;;;;4982307;28;20429;-89
2022/12/28 12:51:22;;;;;;;1.30;1.20;;;8.80;97.30;;;;;;4986330;28;20532;-88
2022/12/28 12:54:02;;;;;;;1.53;1.30;;;8.90;97.30;;;;;;4989873;28;20544;-87
2022/12/28 12:56:55;;;;;;;2.03;1.70;;;9.00;97.30;;;;;;4986083;28;20552;-88
2022/12/28 12:59:47;;;;;;;1.33;1.23;;;9.10;97.30;;;;;;4993505;28;20445;-88
2022/12/28 13:02:22;;;;;;;1.00;0.90;;;9.20;97.30;;;;;;4986745;28;20469;-92
2022/12/28 13:04:48;;;;;;;1.03;0.93;;;9.30;97.30;;;;;;4985149;28;20487;-87
2022/12/28 13:07:22;;;;;;;1.50;1.40;;;9.30;97.30;;;;;;4996795;28;20430;-90
2022/12/28 13:09:51;;;;;;;1.30;1.20;;;9.50;97.30;;;;;;4982689;28;20559;-87
2022/12/28 13:12:18;;;;;;;0.93;0.90;;;9.90;97.30;;;;;;4982220;28;20445;-87
2022/12/28 13:14:46;;;;;;;0.90;0.80;;;10.30;97.30;;;;;;4990767;28;20511;-86
2022/12/28 13:17:18;;;;;;;1.57;1.47;;;10.70;97.30;;;;;;5001181;28;20492;-89
2022/12/28 13:19:43;;;;;;;34.03;1.80;;;10.80;96.70;;;;;;4981813;28;20445;-87
2022/12/28 13:22:32;;;;;;;0.97;0.87;;;10.70;96.50;;;;;;4984716;28;20434;-88
2022/12/28 13:24:57;;;;;;;3.63;3.00;;;10.40;97.00;;;;;;4983977;28;20183;-87
2022/12/28 13:27:30;;;;;;;1.10;1.00;;;10.30;97.30;;;;;;4983070;28;20440;-89
2022/12/28 13:29:56;;;;;;;5.90;2.53;;;10.10;97.30;;;;;;4986243;28;20551;-87
2022/12/28 13:32:34;;;;;;;1.07;0.97;;;9.90;97.30;;;;;;4974703;28;20425;-88
2022/12/28 13:35:00;;;;;;;1.50;1.40;;;9.80;97.30;;;;;;4982170;28;20182;-88
2022/12/28 13:37:26;;;;;;;1.10;1.00;;;9.70;97.30;;;;;;4985674;28;20492;-88
2022/12/28 13:40:10;;;;;;;1.43;1.33;;;9.60;97.30;;;;;;4984851;28;20189;-87
2022/12/28 13:42:53;;;;;;;1.60;1.50;;;9.50;97.30;;;;;;4982677;28;20177;-88